createdAt,value
2019-03-21T00:01:26.815Z,76.70
2019-03-21T00:03:50.817Z,77.10
2019-03-21T00:06:14.295Z,77.70
2019-03-21T00:08:35.484Z,77.90
2019-03-21T00:11:22.980Z,77.80
2019-03-21T00:13:44.370Z,77.80
2019-03-21T00:16:09.384Z,78.90
2019-03-21T00:18:30.614Z,79.40
2019-03-21T00:20:51.898Z,79.80
2019-03-21T00:23:13.114Z,79.80
2019-03-21T00:25:34.308Z,79.60
2019-03-21T00:27:55.484Z,79.70
2019-03-21T00:30:20.011Z,80.00
2019-03-21T00:32:41.547Z,80.30
2019-03-21T00:35:06.243Z,80.20
2019-03-21T00:37:27.439Z,80.30
2019-03-21T00:39:48.624Z,81.30
2019-03-21T00:42:09.811Z,80.90
2019-03-21T00:44:31.014Z,81.00
2019-03-21T00:46:52.215Z,81.30
2019-03-21T00:49:13.438Z,81.40
2019-03-21T00:51:34.623Z,81.20
2019-03-21T00:53:55.809Z,81.20
2019-03-21T00:56:17.112Z,81.10
2019-03-21T00:58:38.301Z,81.00
2019-03-21T01:01:02.512Z,81.10
2019-03-21T01:03:24.498Z,81.30
2019-03-21T01:05:45.913Z,81.40
2019-03-21T01:08:07.609Z,81.40
2019-03-21T01:10:30.681Z,81.50
2019-03-21T01:12:51.861Z,81.70
2019-03-21T01:15:13.078Z,81.80
2019-03-21T01:17:34.295Z,82.60
2019-03-21T01:19:55.483Z,82.50
2019-03-21T01:22:16.692Z,82.30
2019-03-21T01:24:37.875Z,82.10
2019-03-21T01:26:59.064Z,82.30
2019-03-21T01:29:20.265Z,82.30
2019-03-21T01:31:41.470Z,81.80
2019-03-21T01:34:02.871Z,81.70
2019-03-21T01:36:24.149Z,81.10
2019-03-21T01:38:45.337Z,80.90
2019-03-21T01:41:12.238Z,81.10
2019-03-21T01:43:33.515Z,81.10
2019-03-21T01:45:54.713Z,81.40
2019-03-21T01:48:15.927Z,81.10
2019-03-21T01:50:38.728Z,80.80
2019-03-21T01:52:59.940Z,80.60
2019-03-21T01:55:21.118Z,80.60
2019-03-21T01:57:42.303Z,80.70
2019-03-21T02:00:07.281Z,80.70
2019-03-21T02:02:28.575Z,80.50
2019-03-21T02:04:49.765Z,80.40
2019-03-21T02:07:10.973Z,80.40
2019-03-21T02:09:32.136Z,81.40
2019-03-21T02:11:53.337Z,81.50
2019-03-21T02:14:14.514Z,81.90
2019-03-21T02:16:35.724Z,82.20
2019-03-21T02:18:56.919Z,82.20
2019-03-21T02:21:18.122Z,82.00
2019-03-21T02:23:39.296Z,81.90
2019-03-21T02:26:00.488Z,81.80
2019-03-21T02:28:21.679Z,81.80
2019-03-21T02:30:47.086Z,82.00
2019-03-21T02:33:12.093Z,82.10
2019-03-21T02:35:33.268Z,82.30
2019-03-21T02:37:54.473Z,82.20
2019-03-21T02:40:18.564Z,82.20
2019-03-21T02:42:39.849Z,82.30
2019-03-21T02:45:08.444Z,82.20
2019-03-21T02:47:24.517Z,82.20
2019-03-21T02:49:45.715Z,82.60
2019-03-21T02:52:06.893Z,82.50
2019-03-21T02:54:28.081Z,82.10
2019-03-21T02:56:49.485Z,81.70
2019-03-21T02:59:10.668Z,81.60
2019-03-21T03:01:31.854Z,81.40
2019-03-21T03:03:53.069Z,81.70
2019-03-21T03:06:14.252Z,82.10
2019-03-21T03:08:35.453Z,82.40
2019-03-21T03:11:02.821Z,82.80
2019-03-21T03:13:24.022Z,83.10
2019-03-21T03:15:45.429Z,83.60
2019-03-21T03:18:11.866Z,83.70
2019-03-21T03:20:33.091Z,83.90
2019-03-21T03:22:54.407Z,84.10
2019-03-21T03:25:17.976Z,84.30
2019-03-21T03:27:39.176Z,84.60
2019-03-21T03:30:00.634Z,85.00
2019-03-21T03:32:22.277Z,85.10
2019-03-21T03:34:43.469Z,85.10
2019-03-21T03:37:04.789Z,85.20
2019-03-21T03:39:26.043Z,85.20
2019-03-21T03:41:47.244Z,85.00
2019-03-21T03:44:08.446Z,84.60
2019-03-21T03:46:29.626Z,84.50
2019-03-21T03:48:50.874Z,84.50
2019-03-21T03:51:12.047Z,84.60
2019-03-21T03:53:33.251Z,84.70
2019-03-21T03:55:54.450Z,84.60
2019-03-21T03:58:25.001Z,84.90
2019-03-21T04:00:46.189Z,84.80
2019-03-21T04:03:07.376Z,85.10
2019-03-21T04:05:28.556Z,85.10
2019-03-21T04:07:49.780Z,85.10
2019-03-21T04:10:17.375Z,85.20
2019-03-21T04:12:38.864Z,85.30
2019-03-21T04:15:00.068Z,85.60
2019-03-21T04:17:21.367Z,85.70
2019-03-21T04:19:43.681Z,85.80
2019-03-21T04:22:04.857Z,85.90
2019-03-21T04:24:26.056Z,85.70
2019-03-21T04:26:47.271Z,85.70
2019-03-21T04:29:08.462Z,85.70
2019-03-21T04:31:29.667Z,85.50
2019-03-21T04:33:53.773Z,85.50
2019-03-21T04:36:15.056Z,85.40
2019-03-21T04:38:36.252Z,85.80
2019-03-21T04:40:57.462Z,85.90
2019-03-21T04:43:19.214Z,86.00
2019-03-21T04:45:40.534Z,86.00
2019-03-21T04:48:03.137Z,85.90
2019-03-21T04:50:31.107Z,86.50
2019-03-21T04:52:52.441Z,85.90
2019-03-21T04:55:15.510Z,86.20
2019-03-21T04:57:36.724Z,86.60
2019-03-21T04:59:57.916Z,86.90
2019-03-21T05:02:19.113Z,87.30
2019-03-21T05:04:40.340Z,87.80
2019-03-21T05:07:01.540Z,87.90
2019-03-21T05:09:22.745Z,87.60
2019-03-21T05:11:43.940Z,87.10
2019-03-21T05:14:05.194Z,86.70
2019-03-21T05:16:26.522Z,86.30
2019-03-21T05:18:56.941Z,85.80
2019-03-21T05:21:21.066Z,85.30
2019-03-21T05:23:42.273Z,85.00
2019-03-21T05:26:04.185Z,84.60
2019-03-21T05:28:25.666Z,84.10
2019-03-21T05:30:50.574Z,84.00
2019-03-21T05:33:11.780Z,84.00
2019-03-21T05:35:52.960Z,84.20
2019-03-21T05:38:15.729Z,84.10
2019-03-21T05:40:37.261Z,84.00
2019-03-21T05:43:04.787Z,83.90
2019-03-21T05:45:26.073Z,84.00
2019-03-21T05:47:47.301Z,83.70
2019-03-21T05:50:14.894Z,83.70
2019-03-21T05:52:35.490Z,83.30
2019-03-21T05:54:56.833Z,82.60
2019-03-21T05:57:18.044Z,82.80
2019-03-21T05:59:39.256Z,82.10
2019-03-21T06:02:00.450Z,81.80
2019-03-21T06:04:21.645Z,81.70
2019-03-21T06:07:04.838Z,81.70
2019-03-21T06:09:45.937Z,81.70
2019-03-21T06:12:07.224Z,82.20
2019-03-21T06:14:32.251Z,81.90
2019-03-21T06:16:53.523Z,81.50
2019-03-21T06:19:18.604Z,80.80
2019-03-21T06:21:46.523Z,80.60
2019-03-21T06:24:11.567Z,80.50
2019-03-21T06:26:39.523Z,80.10
2019-03-21T06:29:00.819Z,79.60
2019-03-21T06:31:22.144Z,78.80
2019-03-21T06:33:43.331Z,77.90
2019-03-21T06:36:04.536Z,76.70
2019-03-21T06:38:25.720Z,76.50
2019-03-21T06:40:46.979Z,77.30
2019-03-21T06:43:08.254Z,78.40
2019-03-21T06:45:29.466Z,78.40
2019-03-21T06:47:53.014Z,78.30
2019-03-21T06:50:14.046Z,78.30
2019-03-21T06:52:35.229Z,77.80
2019-03-21T06:54:56.770Z,77.00
2019-03-21T06:57:18.097Z,75.70
2019-03-21T06:59:39.391Z,76.60
2019-03-21T07:02:00.571Z,76.00
2019-03-21T07:04:21.819Z,74.60
2019-03-21T07:06:43.888Z,74.30
2019-03-21T07:09:06.784Z,74.20
2019-03-21T07:11:28.021Z,73.90
2019-03-21T07:13:49.292Z,73.40
2019-03-21T07:16:10.493Z,72.10
2019-03-21T07:18:31.696Z,71.20
2019-03-21T07:20:53.106Z,71.20
2019-03-21T07:23:14.419Z,70.60
2019-03-21T07:25:35.658Z,71.00
2019-03-21T07:27:56.834Z,71.50
2019-03-21T07:30:18.066Z,71.40
2019-03-21T07:32:39.261Z,71.30
2019-03-21T07:35:00.457Z,70.40
2019-03-21T07:37:35.643Z,70.90
2019-03-21T07:39:56.858Z,70.50
2019-03-21T07:42:18.094Z,70.20
2019-03-21T07:44:39.301Z,68.70
2019-03-21T07:47:11.731Z,67.70
2019-03-21T07:49:23.700Z,67.20
2019-03-21T07:51:45.276Z,66.60
2019-03-21T07:54:06.712Z,66.80
2019-03-21T07:56:27.920Z,66.40
2019-03-21T07:58:50.125Z,65.90
2019-03-21T08:01:12.317Z,65.90
2019-03-21T08:03:33.504Z,65.10
2019-03-21T08:05:54.703Z,65.10
2019-03-21T08:08:15.937Z,65.10
2019-03-21T08:10:37.201Z,64.50
2019-03-21T08:12:58.401Z,64.20
2019-03-21T08:15:19.764Z,64.70
2019-03-21T08:17:41.199Z,63.90
2019-03-21T08:20:05.749Z,63.60
2019-03-21T08:22:26.945Z,63.20
2019-03-21T08:24:48.147Z,63.50
2019-03-21T08:27:09.333Z,62.60
2019-03-21T08:29:30.525Z,62.40
2019-03-21T08:31:51.706Z,62.00
2019-03-21T08:34:12.904Z,61.80
2019-03-21T08:36:34.106Z,60.30
2019-03-21T08:38:55.282Z,60.10
2019-03-21T08:41:16.501Z,59.60
2019-03-21T08:43:37.676Z,59.70
2019-03-21T08:45:58.852Z,59.50
2019-03-21T08:48:21.165Z,59.40
2019-03-21T08:50:42.361Z,58.90
2019-03-21T08:53:03.655Z,58.40
2019-03-21T08:55:24.936Z,58.00
2019-03-21T08:57:46.173Z,58.60
2019-03-21T09:00:10.761Z,57.80
2019-03-21T09:02:31.980Z,57.50
2019-03-21T09:04:53.165Z,57.00
2019-03-21T09:07:14.377Z,56.70
2019-03-21T09:09:35.565Z,56.30
2019-03-21T09:11:56.773Z,56.00
2019-03-21T09:14:17.969Z,56.20
2019-03-21T09:16:39.164Z,55.80
2019-03-21T09:19:00.359Z,56.20
2019-03-21T09:21:21.594Z,55.10
2019-03-21T09:23:42.792Z,55.10
2019-03-21T09:26:04.093Z,54.70
2019-03-21T09:28:25.300Z,55.60
2019-03-21T09:30:46.538Z,54.10
2019-03-21T09:33:07.824Z,53.40
2019-03-21T09:35:29.049Z,49.80
2019-03-21T09:37:50.290Z,49.70
2019-03-21T09:40:12.593Z,49.00
2019-03-21T09:42:33.886Z,48.70
2019-03-21T09:44:55.081Z,48.90
2019-03-21T09:47:16.277Z,47.90
2019-03-21T09:49:37.497Z,47.40
2019-03-21T09:51:58.710Z,47.90
2019-03-21T09:54:19.920Z,47.70
2019-03-21T09:56:41.137Z,46.50
2019-03-21T09:59:02.356Z,45.60
2019-03-21T10:01:23.871Z,45.00
2019-03-21T10:03:45.224Z,44.60
2019-03-21T10:06:06.408Z,44.10
2019-03-21T10:08:27.632Z,44.00
2019-03-21T10:10:48.839Z,44.20
2019-03-21T10:13:10.058Z,44.30
2019-03-21T10:15:31.258Z,44.40
2019-03-21T10:17:53.776Z,45.40
2019-03-21T10:20:15.005Z,44.40
2019-03-21T10:22:36.333Z,45.50
2019-03-21T10:24:57.535Z,45.10
2019-03-21T10:27:18.751Z,44.10
2019-03-21T10:29:40.034Z,43.00
2019-03-21T10:32:01.254Z,44.70
2019-03-21T10:34:22.636Z,44.10
2019-03-21T10:36:43.951Z,40.60
2019-03-21T10:39:06.215Z,41.00
2019-03-21T10:41:27.406Z,40.10
2019-03-21T10:43:48.594Z,39.40
2019-03-21T10:46:09.789Z,40.20
2019-03-21T10:48:31.149Z,38.50
2019-03-21T10:50:52.325Z,38.40
2019-03-21T10:53:13.548Z,37.40
2019-03-21T10:55:35.158Z,37.20
2019-03-21T10:57:56.427Z,37.10
2019-03-21T11:00:17.719Z,37.30
2019-03-21T11:02:38.909Z,35.60
2019-03-21T11:05:00.274Z,36.50
2019-03-21T11:07:21.795Z,36.30
2019-03-21T11:09:43.006Z,36.40
2019-03-21T11:12:04.194Z,36.30
2019-03-21T11:14:26.597Z,35.00
2019-03-21T11:16:48.115Z,33.90
2019-03-21T11:19:09.328Z,34.40
2019-03-21T11:21:30.750Z,34.10
2019-03-21T11:23:51.960Z,34.40
2019-03-21T11:26:13.156Z,34.60
2019-03-21T11:28:34.381Z,34.30
2019-03-21T11:30:55.576Z,34.40
2019-03-21T11:33:16.789Z,34.40
2019-03-21T11:35:38.020Z,34.00
2019-03-21T11:37:59.220Z,33.60
2019-03-21T11:40:20.660Z,34.10
2019-03-21T11:42:41.862Z,33.80
2019-03-21T11:45:05.848Z,33.80
2019-03-21T11:47:27.041Z,33.60
2019-03-21T11:49:48.369Z,34.00
2019-03-21T11:52:17.843Z,34.40
2019-03-21T11:54:32.665Z,34.80
2019-03-21T11:56:53.859Z,35.50
2019-03-21T11:59:15.044Z,35.10
2019-03-21T12:01:37.261Z,35.00
2019-03-21T12:03:58.461Z,35.00
2019-03-21T12:06:19.648Z,35.40
2019-03-21T12:08:40.837Z,35.80
2019-03-21T12:11:02.136Z,36.40
2019-03-21T12:13:23.409Z,36.20
2019-03-21T12:15:44.640Z,36.10
2019-03-21T12:18:05.851Z,36.50
2019-03-21T12:20:30.771Z,36.00
2019-03-21T12:22:52.983Z,36.00
2019-03-21T12:25:14.596Z,35.90
2019-03-21T12:27:36.111Z,35.90
2019-03-21T12:29:57.420Z,36.30
2019-03-21T12:32:18.604Z,37.30
2019-03-21T12:34:39.794Z,37.50
2019-03-21T12:37:05.385Z,36.80
2019-03-21T12:39:29.004Z,37.50
2019-03-21T12:41:55.066Z,35.80
2019-03-21T12:44:18.589Z,35.10
2019-03-21T12:46:39.793Z,35.50
2019-03-21T12:49:01.141Z,35.30
2019-03-21T12:51:22.376Z,35.20
2019-03-21T12:53:43.665Z,35.40
2019-03-21T12:56:04.871Z,35.50
2019-03-21T12:58:26.360Z,35.80
2019-03-21T13:00:47.584Z,34.10
2019-03-21T13:03:08.989Z,35.70
2019-03-21T13:05:30.959Z,35.70
2019-03-21T13:07:52.164Z,35.10
2019-03-21T13:10:13.580Z,34.90
2019-03-21T13:12:34.783Z,35.10
2019-03-21T13:14:56.019Z,34.30
2019-03-21T13:17:17.192Z,34.60
2019-03-21T13:19:38.384Z,36.00
2019-03-21T13:21:59.630Z,36.00
2019-03-21T13:24:20.825Z,34.70
2019-03-21T13:26:42.145Z,34.10
2019-03-21T13:29:03.525Z,34.40
2019-03-21T13:31:25.082Z,33.90
2019-03-21T13:33:46.369Z,34.70
2019-03-21T13:36:07.571Z,35.10
2019-03-21T13:38:28.772Z,35.30
2019-03-21T13:40:50.300Z,35.10
2019-03-21T13:43:11.482Z,34.00
2019-03-21T13:45:32.705Z,34.10
2019-03-21T13:47:53.881Z,33.50
2019-03-21T13:50:15.067Z,34.10
2019-03-21T13:52:36.465Z,33.10
2019-03-21T13:54:58.190Z,33.00
2019-03-21T13:57:19.488Z,33.00
2019-03-21T13:59:40.664Z,34.20
2019-03-21T14:02:01.877Z,33.70
2019-03-21T14:04:23.049Z,32.50
2019-03-21T14:06:44.259Z,32.80
2019-03-21T14:09:06.437Z,32.80
2019-03-21T14:11:28.002Z,32.10
2019-03-21T14:13:49.196Z,32.30
2019-03-21T14:16:10.413Z,32.60
2019-03-21T14:18:31.650Z,32.60
2019-03-21T14:20:52.846Z,32.70
2019-03-21T14:23:17.318Z,32.30
2019-03-21T14:25:37.128Z,33.00
2019-03-21T14:27:58.688Z,32.80
2019-03-21T14:30:21.245Z,32.90
2019-03-21T14:32:42.761Z,32.50
2019-03-21T14:35:05.552Z,32.50
2019-03-21T14:37:26.848Z,32.80
2019-03-21T14:39:48.350Z,32.80
2019-03-21T14:42:09.536Z,32.20
2019-03-21T14:44:31.085Z,32.20
2019-03-21T14:46:52.303Z,31.70
2019-03-21T14:49:13.500Z,31.60
2019-03-21T14:51:34.733Z,31.00
2019-03-21T14:53:55.989Z,30.00
2019-03-21T14:56:17.166Z,30.20
2019-03-21T14:58:38.485Z,30.00
2019-03-21T15:00:59.683Z,30.30
2019-03-21T15:03:20.901Z,30.40
2019-03-21T15:05:42.247Z,30.00
2019-03-21T15:08:03.482Z,30.40
2019-03-21T15:10:24.990Z,30.30
2019-03-21T15:12:46.481Z,30.00
2019-03-21T15:15:10.272Z,30.10
2019-03-21T15:17:31.497Z,30.40
2019-03-21T15:19:52.675Z,30.00
2019-03-21T15:22:13.864Z,30.00
2019-03-21T15:24:35.078Z,30.60
2019-03-21T15:26:56.322Z,30.60
2019-03-21T15:29:17.539Z,30.50
2019-03-21T15:31:38.729Z,30.90
2019-03-21T15:33:59.944Z,31.10
2019-03-21T15:36:21.136Z,30.40
2019-03-21T15:38:42.345Z,31.50
2019-03-21T15:41:03.534Z,31.00
2019-03-21T15:43:24.738Z,30.30
2019-03-21T15:45:46.012Z,31.00
2019-03-21T15:48:07.211Z,30.80
2019-03-21T15:50:37.357Z,31.50
2019-03-21T15:52:57.841Z,30.50
2019-03-21T15:55:19.048Z,30.90
2019-03-21T15:57:40.577Z,31.70
2019-03-21T16:00:05.573Z,30.70
2019-03-21T16:02:27.199Z,31.10
2019-03-21T16:04:48.416Z,31.40
2019-03-21T16:07:09.699Z,31.20
2019-03-21T16:09:30.905Z,31.60
2019-03-21T16:11:52.080Z,31.50
2019-03-21T16:14:13.478Z,31.40
2019-03-21T16:16:34.654Z,31.40
2019-03-21T16:18:55.849Z,31.40
2019-03-21T16:21:17.051Z,31.30
2019-03-21T16:23:39.647Z,31.70
2019-03-21T16:26:00.929Z,32.10
2019-03-21T16:28:22.138Z,32.60
2019-03-21T16:30:43.450Z,32.30
2019-03-21T16:33:04.666Z,32.30
2019-03-21T16:35:25.949Z,32.80
2019-03-21T16:37:47.148Z,32.00
2019-03-21T16:40:13.609Z,32.50
2019-03-21T16:42:37.076Z,32.80
2019-03-21T16:45:22.599Z,33.20
2019-03-21T16:47:44.616Z,33.50
2019-03-21T16:50:11.529Z,34.10
2019-03-21T16:52:32.733Z,34.20
2019-03-21T16:54:53.978Z,34.40
2019-03-21T16:57:15.161Z,34.70
2019-03-21T16:59:36.353Z,34.30
2019-03-21T17:01:57.538Z,33.90
2019-03-21T17:04:18.733Z,34.20
2019-03-21T17:06:40.033Z,34.70
2019-03-21T17:09:01.329Z,35.40
2019-03-21T17:11:24.446Z,35.10
2019-03-21T17:13:45.737Z,35.40
2019-03-21T17:16:06.963Z,35.70
2019-03-21T17:18:28.182Z,35.90
2019-03-21T17:20:49.398Z,36.10
2019-03-21T17:23:10.728Z,36.00
2019-03-21T17:25:31.961Z,36.10
2019-03-21T17:27:54.765Z,36.40
2019-03-21T17:30:16.436Z,36.30
2019-03-21T17:32:37.719Z,36.30
2019-03-21T17:34:59.237Z,36.40
2019-03-21T17:37:20.516Z,36.70
2019-03-21T17:39:41.717Z,36.80
2019-03-21T17:42:02.994Z,36.90
2019-03-21T17:44:24.202Z,37.10
2019-03-21T17:46:45.384Z,37.10
2019-03-21T17:49:06.737Z,37.20
2019-03-21T17:51:27.920Z,37.40
2019-03-21T17:53:49.194Z,37.70
2019-03-21T17:56:10.399Z,37.90
2019-03-21T17:58:31.587Z,38.10
2019-03-21T18:00:52.787Z,38.30
2019-03-21T18:03:14.379Z,38.40
2019-03-21T18:05:35.592Z,38.60
2019-03-21T18:07:56.760Z,38.70
2019-03-21T18:10:23.059Z,38.80
2019-03-21T18:12:44.256Z,39.00
2019-03-21T18:15:06.167Z,39.10
2019-03-21T18:17:39.034Z,39.30
2019-03-21T18:20:00.499Z,39.60
2019-03-21T18:22:21.821Z,39.80
2019-03-21T18:24:53.294Z,39.90
2019-03-21T18:27:06.455Z,40.20
2019-03-21T18:29:27.793Z,40.60
2019-03-21T18:31:49.352Z,41.20
2019-03-21T18:34:10.557Z,41.70
2019-03-21T18:36:31.751Z,42.50
2019-03-21T18:38:59.462Z,43.20
2019-03-21T18:41:16.169Z,43.70
2019-03-21T18:43:37.494Z,43.20
2019-03-21T18:45:58.724Z,43.00
2019-03-21T18:48:19.913Z,43.10
2019-03-21T18:50:41.387Z,43.40
2019-03-21T18:53:02.657Z,43.70
2019-03-21T18:55:23.860Z,43.80
2019-03-21T18:57:45.041Z,45.10
2019-03-21T19:00:13.089Z,45.50
2019-03-21T19:02:34.506Z,45.80
2019-03-21T19:04:55.757Z,46.30
2019-03-21T19:07:16.969Z,46.00
2019-03-21T19:09:38.165Z,46.20
2019-03-21T19:11:59.383Z,46.50
2019-03-21T19:14:20.902Z,47.10
2019-03-21T19:16:42.111Z,47.20
2019-03-21T19:19:03.300Z,47.10
2019-03-21T19:21:24.517Z,47.40
2019-03-21T19:23:45.746Z,48.10
2019-03-21T19:26:07.024Z,48.10
2019-03-21T19:28:28.221Z,48.40
2019-03-21T19:30:49.467Z,48.70
2019-03-21T19:33:10.652Z,49.00
2019-03-21T19:35:31.856Z,49.30
2019-03-21T19:37:53.047Z,49.80
2019-03-21T19:40:15.942Z,49.90
2019-03-21T19:42:37.140Z,50.10
2019-03-21T19:44:58.340Z,51.10
2019-03-21T19:47:24.356Z,51.60
2019-03-21T19:49:42.657Z,52.00
2019-03-21T19:52:05.448Z,52.30
2019-03-21T19:54:26.987Z,52.30
2019-03-21T19:56:48.189Z,52.50
2019-03-21T19:59:09.676Z,52.80
2019-03-21T20:01:30.873Z,52.20
2019-03-21T20:03:52.137Z,52.20
2019-03-21T20:06:13.406Z,52.50
2019-03-21T20:08:34.601Z,51.80
2019-03-21T20:10:55.826Z,52.10
2019-03-21T20:13:17.450Z,52.40
2019-03-21T20:15:38.664Z,52.40
2019-03-21T20:17:59.971Z,51.70
2019-03-21T20:20:21.269Z,51.90
2019-03-21T20:22:42.898Z,51.80
2019-03-21T20:25:05.514Z,52.10
2019-03-21T20:27:27.221Z,52.70
2019-03-21T20:29:48.571Z,52.40
2019-03-21T20:32:20.164Z,52.60
2019-03-21T20:34:33.048Z,52.90
2019-03-21T20:36:54.505Z,52.60
2019-03-21T20:39:15.828Z,52.80
2019-03-21T20:41:37.025Z,53.20
2019-03-21T20:43:58.212Z,53.80
2019-03-21T20:46:19.396Z,54.50
2019-03-21T20:48:40.376Z,55.10
2019-03-21T20:51:01.634Z,54.90
2019-03-21T20:53:22.833Z,55.20
2019-03-21T20:55:53.403Z,55.70
2019-03-21T20:58:07.137Z,55.90
2019-03-21T21:00:28.616Z,55.80
2019-03-21T21:02:50.590Z,56.10
2019-03-21T21:05:12.215Z,56.50
2019-03-21T21:07:33.412Z,56.80
2019-03-21T21:09:54.865Z,57.60
2019-03-21T21:12:16.090Z,57.90
2019-03-21T21:14:37.383Z,58.20
2019-03-21T21:16:58.577Z,58.70
2019-03-21T21:19:20.063Z,58.70
2019-03-21T21:21:41.264Z,59.50
2019-03-21T21:24:03.377Z,59.70
2019-03-21T21:26:24.657Z,59.90
2019-03-21T21:28:45.835Z,60.30
2019-03-21T21:31:07.045Z,60.60
2019-03-21T21:33:28.272Z,60.60
2019-03-21T21:35:49.472Z,61.00
2019-03-21T21:38:10.670Z,60.30
2019-03-21T21:40:33.164Z,61.00
2019-03-21T21:42:54.376Z,61.80
2019-03-21T21:45:16.226Z,61.90
2019-03-21T21:47:37.420Z,61.60
2019-03-21T21:49:58.597Z,61.60
2019-03-21T21:52:19.822Z,61.90
2019-03-21T21:54:41.013Z,62.90
2019-03-21T21:57:02.568Z,63.60
2019-03-21T21:59:23.762Z,64.30
2019-03-21T22:01:45.010Z,64.50
2019-03-21T22:04:06.206Z,65.00
2019-03-21T22:06:27.732Z,64.90
2019-03-21T22:08:48.934Z,64.80
2019-03-21T22:11:10.118Z,65.00
2019-03-21T22:13:31.577Z,66.40
2019-03-21T22:15:52.763Z,65.40
2019-03-21T22:18:14.140Z,65.20
2019-03-21T22:20:35.330Z,65.40
2019-03-21T22:22:56.533Z,65.90
2019-03-21T22:25:17.753Z,66.10
2019-03-21T22:27:38.950Z,66.50
2019-03-21T22:30:00.449Z,66.70
2019-03-21T22:32:21.848Z,66.60
2019-03-21T22:34:43.015Z,67.20
2019-03-21T22:37:04.236Z,67.20
2019-03-21T22:39:25.442Z,67.40
2019-03-21T22:41:46.624Z,67.50
2019-03-21T22:44:07.817Z,67.60
2019-03-21T22:46:29.030Z,68.00
2019-03-21T22:48:50.221Z,68.70
2019-03-21T22:51:12.505Z,69.50
2019-03-21T22:53:33.895Z,69.60
2019-03-21T22:55:55.093Z,69.80
2019-03-21T22:58:16.290Z,70.10
2019-03-21T23:00:58.304Z,69.40
2019-03-21T23:03:20.972Z,69.10
2019-03-21T23:05:42.150Z,69.30
2019-03-21T23:08:03.355Z,69.60
2019-03-21T23:10:24.539Z,69.50
2019-03-21T23:12:45.740Z,69.80
2019-03-21T23:15:08.721Z,70.00
2019-03-21T23:17:29.911Z,69.90
2019-03-21T23:19:51.094Z,70.00
2019-03-21T23:22:12.336Z,70.00
2019-03-21T23:24:33.562Z,70.00
2019-03-21T23:26:54.856Z,70.30
2019-03-21T23:29:17.261Z,70.30
2019-03-21T23:31:38.533Z,70.80
2019-03-21T23:33:59.867Z,70.90
2019-03-21T23:36:21.044Z,71.10
2019-03-21T23:38:42.238Z,71.30
2019-03-21T23:41:03.421Z,71.40
2019-03-21T23:43:24.629Z,71.70
2019-03-21T23:45:45.812Z,71.60
2019-03-21T23:48:07.029Z,71.90
2019-03-21T23:50:28.223Z,72.00
2019-03-21T23:53:09.306Z,71.80
2019-03-21T23:55:30.541Z,71.80
2019-03-21T23:57:51.755Z,71.90
